Time;durP1;ratioP1;P1;durP2;ratioP2;P2;SDS_P1;SDS_P2;PMS_P1;PMS_P2;Temp;Humidity;BMP_temperature;BMP_pressure;BME280_temperature;BME280_humidity;BME280_pressure;Samples;Min_cycle;Max_cycle;Signal;HPM_P1;HPM_P2
2023/06/24 00:01:59;;;;;;;11.57;8.07;;;18.70;99.90;;;;;;4988856;28;20050;-70
2023/06/24 00:04:25;;;;;;;11.85;7.93;;;18.70;99.90;;;;;;4965252;28;20042;-70
2023/06/24 00:06:52;;;;;;;11.23;8.93;;;18.60;99.90;;;;;;4965860;28;20420;-69
2023/06/24 00:09:18;;;;;;;9.57;8.48;;;18.60;99.90;;;;;;4959354;28;20093;-69
2023/06/24 00:11:44;;;;;;;10.93;8.63;;;18.50;99.90;;;;;;4965500;28;20089;-69
2023/06/24 00:14:10;;;;;;;12.27;9.43;;;18.50;99.90;;;;;;4970173;28;20043;-69
2023/06/24 00:16:36;;;;;;;13.30;8.73;;;18.50;99.90;;;;;;4974804;28;20042;-68
2023/06/24 00:19:02;;;;;;;11.68;9.07;;;18.50;99.90;;;;;;4991150;28;20424;-69
2023/06/24 00:21:29;;;;;;;11.85;8.57;;;18.50;99.90;;;;;;4971652;28;20046;-70
2023/06/24 00:24:02;;;;;;;10.68;8.65;;;18.40;99.90;;;;;;4954432;28;20492;-70
2023/06/24 00:26:28;;;;;;;10.25;7.85;;;18.40;99.90;;;;;;4977559;28;20050;-69
2023/06/24 00:28:53;;;;;;;10.00;8.27;;;18.40;99.90;;;;;;4973863;28;20053;-69
2023/06/24 00:31:20;;;;;;;10.45;8.05;;;18.40;99.90;;;;;;4957374;28;20049;-68
2023/06/24 00:33:46;;;;;;;10.57;8.27;;;18.40;99.90;;;;;;4972751;28;20042;-69
2023/06/24 00:36:12;;;;;;;11.15;8.23;;;18.40;99.90;;;;;;4988712;28;20479;-68
2023/06/24 00:38:38;;;;;;;12.35;8.93;;;18.30;99.90;;;;;;4974728;28;20046;-69
2023/06/24 00:41:04;;;;;;;12.35;7.85;;;18.30;99.90;;;;;;4988388;28;20038;-69
2023/06/24 00:43:30;;;;;;;10.82;8.55;;;18.30;99.90;;;;;;4955993;28;20073;-70
2023/06/24 00:45:57;;;;;;;10.50;7.97;;;18.30;99.90;;;;;;4991232;28;20042;-70
2023/06/24 00:48:23;;;;;;;10.23;8.50;;;18.30;99.90;;;;;;4990465;28;20058;-70
2023/06/24 00:50:49;;;;;;;10.93;8.40;;;18.20;99.90;;;;;;4974161;28;20058;-69
2023/06/24 00:53:18;;;;;;;14.98;8.95;;;18.20;99.90;;;;;;4976321;28;20038;-69
2023/06/24 00:55:45;;;;;;;10.98;8.27;;;18.20;99.90;;;;;;4992105;28;20042;-69
2023/06/24 00:58:20;;;;;;;11.93;8.98;;;18.20;99.90;;;;;;4958285;28;20038;-69
2023/06/24 01:00:56;;;;;;;11.40;8.85;;;18.20;99.90;;;;;;4973118;28;20403;-75
2023/06/24 01:03:23;;;;;;;11.60;8.40;;;18.20;99.90;;;;;;4976032;28;20485;-68
2023/06/24 01:05:49;;;;;;;10.05;8.32;;;18.10;99.90;;;;;;4974245;28;20503;-69
2023/06/24 01:08:15;;;;;;;12.20;8.82;;;18.10;99.90;;;;;;5005314;28;20046;-71
2023/06/24 01:10:42;;;;;;;12.15;9.18;;;18.10;99.90;;;;;;4958975;28;20415;-69
2023/06/24 01:13:08;;;;;;;13.27;10.05;;;18.10;99.90;;;;;;4971779;28;20694;-72
2023/06/24 01:15:35;;;;;;;11.65;9.75;;;18.10;99.90;;;;;;4958394;28;20540;-67
2023/06/24 01:18:13;;;;;;;11.55;9.90;;;18.10;99.90;;;;;;4990594;28;20499;-69
2023/06/24 01:20:46;;;;;;;14.60;9.43;;;18.00;99.90;;;;;;4991951;28;20053;-70
2023/06/24 01:23:17;;;;;;;12.25;9.45;;;18.00;99.90;;;;;;4980356;28;20055;-69
2023/06/24 01:25:59;;;;;;;13.43;10.10;;;18.00;99.90;;;;;;4973944;28;20042;-69
2023/06/24 01:28:48;;;;;;;11.20;9.77;;;18.00;99.90;;;;;;4974532;28;20376;-69
2023/06/24 01:31:35;;;;;;;13.95;10.27;;;17.90;99.90;;;;;;4967191;28;20150;-70
2023/06/24 01:34:13;;;;;;;14.75;10.43;;;17.90;99.90;;;;;;4972281;28;20121;-71
2023/06/24 01:36:44;;;;;;;15.32;10.45;;;17.90;99.90;;;;;;4989644;28;20056;-70
2023/06/24 01:39:13;;;;;;;12.50;10.43;;;17.90;99.90;;;;;;4977735;28;20046;-68
2023/06/24 01:41:47;;;;;;;12.52;10.35;;;17.90;99.90;;;;;;4978191;28;20050;-69
2023/06/24 01:44:15;;;;;;;14.50;10.50;;;17.80;99.90;;;;;;4987702;28;20053;-69
2023/06/24 01:46:41;;;;;;;11.70;10.25;;;17.80;99.90;;;;;;4994911;28;20062;-70
2023/06/24 01:49:11;;;;;;;14.35;10.70;;;17.80;99.90;;;;;;4976552;28;20050;-69
2023/06/24 01:51:40;;;;;;;16.02;10.88;;;17.80;99.90;;;;;;4968892;28;20046;-69
2023/06/24 01:54:10;;;;;;;13.25;10.93;;;17.80;99.90;;;;;;4974821;28;20510;-70
2023/06/24 01:56:37;;;;;;;19.65;11.00;;;17.80;99.90;;;;;;4977964;28;20462;-69
2023/06/24 01:59:05;;;;;;;14.38;10.57;;;17.80;99.90;;;;;;4994369;28;20057;-70
2023/06/24 02:01:33;;;;;;;20.25;11.45;;;17.70;99.90;;;;;;4989820;28;20380;-69
2023/06/24 02:04:01;;;;;;;15.20;11.10;;;17.70;99.90;;;;;;4988929;28;20046;-70
2023/06/24 02:06:29;;;;;;;18.40;13.30;;;17.70;99.90;;;;;;4977784;28;20064;-69
2023/06/24 02:08:58;;;;;;;16.60;13.05;;;17.70;99.90;;;;;;4994565;28;20046;-75
2023/06/24 02:11:26;;;;;;;16.05;13.82;;;17.70;99.90;;;;;;4977401;28;20050;-68
2023/06/24 02:13:54;;;;;;;15.32;12.00;;;17.60;99.90;;;;;;4971158;28;20111;-69
2023/06/24 02:16:21;;;;;;;16.73;12.60;;;17.60;99.90;;;;;;4992156;28;20500;-68
2023/06/24 02:18:47;;;;;;;15.48;12.50;;;17.60;99.90;;;;;;4967764;28;20058;-68
2023/06/24 02:21:14;;;;;;;16.45;11.93;;;17.60;99.90;;;;;;4976825;28;20056;-68
2023/06/24 02:23:41;;;;;;;14.07;11.20;;;17.60;99.90;;;;;;4945190;28;20068;-69
2023/06/24 02:26:08;;;;;;;15.68;10.75;;;17.60;99.90;;;;;;4990404;28;20140;-70
2023/06/24 02:28:34;;;;;;;14.13;11.50;;;17.60;99.90;;;;;;4975048;28;20058;-69
2023/06/24 02:31:01;;;;;;;16.70;11.02;;;17.60;99.90;;;;;;4976533;28;20046;-70
2023/06/24 02:33:27;;;;;;;15.80;10.52;;;17.60;99.90;;;;;;4977088;28;20052;-70
2023/06/24 02:35:53;;;;;;;14.40;10.82;;;17.60;99.90;;;;;;4988401;28;20118;-69
2023/06/24 02:38:18;;;;;;;14.65;10.82;;;17.60;99.90;;;;;;4959841;28;20530;-70
2023/06/24 02:40:49;;;;;;;17.23;11.25;;;17.60;99.90;;;;;;4966181;28;20082;-69
2023/06/24 02:43:15;;;;;;;13.55;11.35;;;17.60;99.90;;;;;;4959715;28;20050;-70
2023/06/24 02:45:41;;;;;;;15.93;11.68;;;17.50;99.90;;;;;;4990911;28;20096;-69
2023/06/24 02:48:09;;;;;;;17.13;12.68;;;17.50;99.90;;;;;;4984065;28;20090;-69
2023/06/24 02:50:36;;;;;;;16.02;11.80;;;17.50;99.90;;;;;;4993763;28;20479;-69
2023/06/24 02:53:02;;;;;;;17.25;13.50;;;17.50;99.90;;;;;;4990374;28;20043;-74
2023/06/24 02:55:30;;;;;;;18.13;13.65;;;17.40;99.90;;;;;;4991775;28;20105;-70
2023/06/24 02:57:57;;;;;;;14.40;11.65;;;17.40;99.90;;;;;;4952694;28;20042;-73
2023/06/24 03:00:23;;;;;;;16.25;12.35;;;17.40;99.90;;;;;;4993419;28;20117;-69
2023/06/24 03:02:50;;;;;;;17.02;12.40;;;17.40;99.90;;;;;;4993265;28;20050;-69
2023/06/24 03:05:16;;;;;;;15.70;12.02;;;17.40;99.90;;;;;;4948781;28;20101;-70
2023/06/24 03:07:42;;;;;;;18.23;13.15;;;17.40;99.90;;;;;;4974182;28;20070;-69
2023/06/24 03:10:10;;;;;;;20.33;13.52;;;17.40;99.90;;;;;;4975321;28;20054;-70
2023/06/24 03:12:36;;;;;;;17.27;13.75;;;17.40;99.90;;;;;;4993028;28;20138;-68
2023/06/24 03:15:02;;;;;;;17.88;14.63;;;17.40;99.90;;;;;;4992975;28;20116;-69
2023/06/24 03:17:28;;;;;;;20.58;16.13;;;17.40;99.90;;;;;;4986732;28;20038;-69
2023/06/24 03:19:53;;;;;;;20.20;14.15;;;17.30;99.90;;;;;;4990092;28;20078;-68
2023/06/24 03:22:20;;;;;;;18.30;13.50;;;17.30;99.90;;;;;;4992648;28;20046;-70
2023/06/24 03:24:46;;;;;;;19.73;14.13;;;17.30;99.90;;;;;;4975484;28;20178;-70
2023/06/24 03:27:12;;;;;;;18.27;13.65;;;17.20;99.90;;;;;;4992483;28;20042;-68
2023/06/24 03:29:38;;;;;;;18.13;12.57;;;17.20;99.90;;;;;;4973734;28;20133;-69
2023/06/24 03:32:04;;;;;;;14.73;12.25;;;17.20;99.90;;;;;;4971366;28;20126;-70
2023/06/24 03:34:29;;;;;;;17.75;12.70;;;17.20;99.90;;;;;;4966347;28;20488;-69
2023/06/24 03:36:55;;;;;;;16.27;12.10;;;17.20;99.90;;;;;;4975602;28;20058;-69
2023/06/24 03:39:22;;;;;;;15.98;12.80;;;17.20;99.90;;;;;;4972318;28;20035;-69
2023/06/24 03:41:47;;;;;;;15.93;12.40;;;17.10;99.90;;;;;;4989081;28;20387;-69
2023/06/24 03:44:13;;;;;;;17.75;12.73;;;17.10;99.90;;;;;;4982020;28;20042;-69
2023/06/24 03:46:39;;;;;;;17.30;12.82;;;17.20;99.90;;;;;;4982978;28;20042;-70
2023/06/24 03:49:05;;;;;;;15.07;12.13;;;17.10;99.90;;;;;;4975302;28;20057;-70
2023/06/24 03:51:31;;;;;;;14.25;11.75;;;17.20;99.90;;;;;;4987864;28;20054;-70
2023/06/24 03:53:57;;;;;;;15.25;11.63;;;17.20;99.90;;;;;;4974259;28;20062;-70
2023/06/24 03:56:22;;;;;;;15.77;10.85;;;17.20;99.90;;;;;;4965867;28;20042;-69
2023/06/24 03:58:48;;;;;;;16.52;11.00;;;17.20;99.90;;;;;;4992349;28;20046;-70
2023/06/24 04:01:14;;;;;;;13.65;10.27;;;17.20;99.90;;;;;;4973786;28;20046;-68
2023/06/24 04:03:40;;;;;;;12.73;9.77;;;17.20;99.90;;;;;;4963235;28;20381;-69
2023/06/24 04:06:05;;;;;;;12.55;9.90;;;17.20;99.90;;;;;;4974458;28;20042;-69
2023/06/24 04:08:31;;;;;;;12.55;9.70;;;17.20;99.90;;;;;;4967066;28;20165;-69
2023/06/24 04:11:03;;;;;;;15.73;9.93;;;17.20;99.90;;;;;;4969876;28;20149;-72
2023/06/24 04:13:29;;;;;;;12.90;9.43;;;17.20;99.90;;;;;;4991397;28;20050;-70
2023/06/24 04:15:55;;;;;;;13.20;9.00;;;17.30;99.90;;;;;;4974910;28;20058;-69
2023/06/24 04:18:20;;;;;;;11.00;9.80;;;17.30;99.90;;;;;;4957230;28;20100;-69
2023/06/24 04:20:46;;;;;;;13.27;9.40;;;17.30;99.90;;;;;;4985204;28;20126;-69
2023/06/24 04:23:14;;;;;;;11.57;9.00;;;17.30;99.90;;;;;;4963378;28;20061;-69
2023/06/24 04:25:40;;;;;;;11.73;8.80;;;17.40;99.90;;;;;;4958605;28;20049;-69
2023/06/24 04:28:06;;;;;;;12.55;8.65;;;17.40;99.90;;;;;;4974642;28;20046;-72
2023/06/24 04:30:43;;;;;;;12.43;8.23;;;17.50;99.90;;;;;;4962086;28;20050;-69
2023/06/24 04:33:09;;;;;;;11.07;8.48;;;17.50;99.90;;;;;;4964080;28;20051;-69
2023/06/24 04:35:34;;;;;;;11.93;8.43;;;17.50;99.90;;;;;;4961745;28;20053;-69
2023/06/24 04:38:00;;;;;;;12.48;8.57;;;17.60;99.90;;;;;;4967333;28;20058;-69
2023/06/24 04:40:26;;;;;;;10.55;8.20;;;17.70;99.90;;;;;;4973703;28;20080;-69
2023/06/24 04:42:51;;;;;;;10.57;8.10;;;17.80;99.90;;;;;;4973389;28;20058;-69
2023/06/24 04:45:17;;;;;;;8.80;7.90;;;17.90;99.90;;;;;;4990506;28;20053;-75
2023/06/24 04:47:44;;;;;;;9.43;7.70;;;18.00;99.90;;;;;;4981084;28;20058;-69
2023/06/24 04:50:10;;;;;;;10.55;8.00;;;18.10;99.90;;;;;;4974355;28;20138;-70
2023/06/24 04:52:36;;;;;;;10.95;7.88;;;18.30;99.90;;;;;;4990449;28;20447;-72
2023/06/24 04:55:02;;;;;;;9.82;7.82;;;18.40;99.90;;;;;;4974669;28;20176;-70
2023/06/24 04:57:31;;;;;;;12.25;7.80;;;18.50;99.90;;;;;;4991137;28;20043;-69
2023/06/24 04:59:58;;;;;;;10.30;7.45;;;18.60;99.90;;;;;;4970745;28;20129;-69
2023/06/24 05:02:24;;;;;;;10.35;8.00;;;18.90;99.90;;;;;;4978711;28;20403;-70
2023/06/24 05:04:51;;;;;;;12.45;7.40;;;19.50;99.90;;;;;;4974452;28;20050;-70
2023/06/24 05:07:16;;;;;;;8.82;7.20;;;20.20;99.90;;;;;;4994723;28;20050;-69
2023/06/24 05:09:43;;;;;;;8.75;7.55;;;20.70;99.90;;;;;;4995284;28;20046;-69
2023/06/24 05:12:09;;;;;;;11.90;7.32;;;21.10;99.90;;;;;;4985406;28;20054;-69
2023/06/24 05:14:36;;;;;;;11.90;7.57;;;21.50;99.90;;;;;;4957853;28;20112;-70
2023/06/24 05:17:03;;;;;;;9.85;7.30;;;21.90;99.90;;;;;;4995031;28;20035;-70
2023/06/24 05:19:29;;;;;;;10.13;7.40;;;22.60;99.90;;;;;;4973725;28;20105;-71
2023/06/24 05:21:55;;;;;;;11.70;7.80;;;23.10;99.90;;;;;;4978108;28;20054;-70
2023/06/24 05:24:21;;;;;;;9.98;7.05;;;23.50;99.90;;;;;;4990766;28;20511;-69
2023/06/24 05:26:50;;;;;;;9.25;7.30;;;23.90;99.90;;;;;;4968993;28;20133;-70
2023/06/24 05:29:17;;;;;;;9.65;7.57;;;24.20;99.90;;;;;;4990302;28;20123;-70
2023/06/24 05:31:43;;;;;;;9.60;7.63;;;24.70;99.80;;;;;;4984493;28;20054;-69
2023/06/24 05:34:08;;;;;;;10.75;7.40;;;25.20;99.30;;;;;;4975213;28;20069;-69
2023/06/24 05:36:34;;;;;;;9.95;7.10;;;25.70;98.80;;;;;;4973510;28;20046;-68
2023/06/24 05:39:01;;;;;;;10.05;6.60;;;26.20;97.80;;;;;;4994336;28;20042;-69
2023/06/24 05:41:26;;;;;;;8.95;5.90;;;26.50;97.30;;;;;;4990044;28;20507;-70
2023/06/24 05:44:07;;;;;;;9.65;6.40;;;26.90;95.30;;;;;;4976924;28;20049;-70
2023/06/24 05:46:33;;;;;;;9.40;7.35;;;27.20;95.00;;;;;;4994128;28;20065;-68
2023/06/24 05:48:59;;;;;;;9.18;6.45;;;27.40;95.60;;;;;;4976986;28;20047;-70
2023/06/24 05:51:25;;;;;;;8.60;6.15;;;27.30;94.90;;;;;;4986419;28;20084;-75
2023/06/24 05:53:51;;;;;;;9.75;6.85;;;27.10;95.20;;;;;;4994039;28;20058;-69
2023/06/24 05:56:16;;;;;;;8.10;6.70;;;26.90;95.30;;;;;;4994780;28;20042;-69
2023/06/24 05:58:42;;;;;;;11.10;6.28;;;26.60;95.50;;;;;;4977189;28;20057;-70
2023/06/24 06:01:10;;;;;;;9.15;6.60;;;26.40;95.80;;;;;;4991542;28;20050;-70
2023/06/24 06:03:36;;;;;;;8.75;6.45;;;26.50;95.70;;;;;;4982404;28;20102;-70
2023/06/24 06:06:02;;;;;;;8.98;6.20;;;27.00;95.40;;;;;;4992673;28;20046;-71
2023/06/24 06:08:27;;;;;;;8.05;6.03;;;27.30;94.20;;;;;;4977168;28;20057;-78
2023/06/24 06:10:53;;;;;;;8.77;6.72;;;27.60;94.10;;;;;;4974548;28;20069;-70
2023/06/24 06:13:19;;;;;;;7.20;6.32;;;28.00;94.10;;;;;;4993826;28;20543;-70
2023/06/24 06:15:44;;;;;;;7.85;6.60;;;28.40;93.50;;;;;;4972755;28;20065;-70
2023/06/24 06:18:10;;;;;;;8.40;6.63;;;28.60;93.50;;;;;;4960302;28;20133;-70
2023/06/24 06:20:36;;;;;;;7.13;6.30;;;28.80;92.90;;;;;;4993194;28;20082;-70
2023/06/24 06:23:01;;;;;;;11.80;7.03;;;28.10;93.30;;;;;;4990779;28;20054;-70
2023/06/24 06:25:27;;;;;;;8.90;7.10;;;27.50;94.00;;;;;;4971450;28;20045;-69
2023/06/24 06:27:53;;;;;;;8.65;6.90;;;26.70;94.70;;;;;;4954149;28;20065;-69
2023/06/24 06:30:18;;;;;;;11.57;7.00;;;26.10;95.30;;;;;;4993506;28;20116;-72
2023/06/24 06:32:44;;;;;;;8.43;7.35;;;25.60;95.90;;;;;;4959332;28;20077;-68
2023/06/24 06:35:10;;;;;;;9.65;8.10;;;25.20;96.30;;;;;;4989422;28;20097;-69
2023/06/24 06:37:35;;;;;;;10.98;7.55;;;24.80;96.80;;;;;;4975785;28;20125;-72
2023/06/24 06:40:02;;;;;;;10.88;7.55;;;24.60;97.30;;;;;;4986355;28;20058;-72
2023/06/24 06:42:28;;;;;;;9.38;7.50;;;24.50;97.70;;;;;;4976182;28;20384;-74
2023/06/24 06:44:54;;;;;;;8.80;7.50;;;24.30;98.10;;;;;;4975518;28;20042;-72
2023/06/24 06:47:20;;;;;;;11.50;7.05;;;24.30;98.30;;;;;;4993508;28;20120;-71
2023/06/24 06:49:46;;;;;;;10.88;7.72;;;24.30;98.40;;;;;;4993502;28;20050;-71
2023/06/24 06:52:12;;;;;;;9.27;7.45;;;24.10;98.70;;;;;;4975372;28;20038;-71
2023/06/24 06:54:37;;;;;;;8.85;7.50;;;24.20;98.90;;;;;;4953640;28;20050;-72
2023/06/24 06:57:04;;;;;;;9.43;7.07;;;24.20;98.90;;;;;;4992747;28;20050;-72
2023/06/24 06:59:31;;;;;;;8.52;7.30;;;24.30;99.20;;;;;;4959957;28;20057;-70
2023/06/24 07:01:56;;;;;;;10.23;7.68;;;24.40;99.00;;;;;;4976018;28;20900;-70
2023/06/24 07:04:22;;;;;;;8.93;7.32;;;24.40;99.00;;;;;;4971419;28;20038;-70
2023/06/24 07:06:48;;;;;;;10.25;7.68;;;24.50;98.80;;;;;;4975630;28;20133;-71
2023/06/24 07:09:14;;;;;;;9.95;7.28;;;24.40;98.90;;;;;;4976170;28;20096;-71
2023/06/24 07:11:41;;;;;;;11.20;8.05;;;24.50;99.00;;;;;;4942224;28;20042;-70
2023/06/24 07:14:07;;;;;;;10.55;7.78;;;24.60;98.90;;;;;;4974119;28;20405;-71
2023/06/24 07:16:32;;;;;;;9.63;7.80;;;24.50;98.70;;;;;;4976088;28;20544;-72
2023/06/24 07:18:58;;;;;;;11.35;6.93;;;24.40;99.00;;;;;;4966584;28;20117;-72
2023/06/24 07:21:24;;;;;;;8.82;7.90;;;24.50;99.00;;;;;;4991826;28;20197;-72
2023/06/24 07:23:49;;;;;;;11.68;7.60;;;24.50;98.80;;;;;;4991404;28;20057;-72
2023/06/24 07:26:15;;;;;;;9.63;7.30;;;24.60;98.70;;;;;;4967157;28;20047;-72
2023/06/24 07:28:41;;;;;;;9.00;7.00;;;24.60;98.70;;;;;;4963985;28;20121;-75
2023/06/24 07:31:07;;;;;;;11.65;7.55;;;24.70;98.60;;;;;;4956804;28;20046;-71
2023/06/24 07:33:32;;;;;;;10.52;7.07;;;24.80;98.50;;;;;;4960943;28;20050;-72
2023/06/24 07:35:58;;;;;;;11.65;7.18;;;25.00;98.40;;;;;;4989338;28;20096;-69
2023/06/24 07:38:24;;;;;;;9.48;6.43;;;25.30;98.00;;;;;;4992617;28;20050;-68
2023/06/24 07:40:50;;;;;;;10.43;6.35;;;25.80;97.70;;;;;;4973529;28;20073;-68
2023/06/24 07:43:15;;;;;;;9.43;6.68;;;26.30;96.80;;;;;;4992796;28;20112;-68
2023/06/24 07:45:41;;;;;;;9.73;6.63;;;26.80;96.50;;;;;;4971907;28;20470;-75
2023/06/24 07:48:07;;;;;;;9.05;6.15;;;27.10;96.00;;;;;;4966876;28;20051;-68
2023/06/24 07:50:36;;;;;;;7.85;6.55;;;27.30;95.30;;;;;;4992760;28;20098;-68
2023/06/24 07:53:02;;;;;;;7.35;6.45;;;27.20;94.90;;;;;;4970255;28;20066;-68
2023/06/24 07:55:28;;;;;;;9.38;6.47;;;27.30;95.10;;;;;;4953841;28;20102;-69
2023/06/24 07:57:54;;;;;;;8.93;5.70;;;27.60;95.40;;;;;;4989662;28;20049;-68
2023/06/24 08:00:19;;;;;;;6.85;5.75;;;27.80;95.30;;;;;;4991132;28;20531;-68
2023/06/24 08:02:45;;;;;;;8.48;6.05;;;28.00;94.90;;;;;;4974779;28;20042;-75
2023/06/24 08:05:11;;;;;;;8.52;5.63;;;28.10;94.80;;;;;;4990610;28;20427;-69
2023/06/24 08:07:37;;;;;;;8.10;5.22;;;28.30;95.00;;;;;;4973097;28;20494;-69
2023/06/24 08:10:04;;;;;;;7.95;5.82;;;28.40;94.70;;;;;;4974496;28;20043;-68
2023/06/24 08:12:31;;;;;;;16.83;5.68;;;28.30;94.40;;;;;;4971359;28;20095;-67
2023/06/24 08:14:56;;;;;;;7.25;5.20;;;28.10;93.90;;;;;;4990671;28;20049;-67
2023/06/24 08:17:22;;;;;;;8.20;5.70;;;28.00;94.00;;;;;;4980960;28;20050;-68
2023/06/24 08:19:48;;;;;;;10.13;5.90;;;27.90;94.20;;;;;;4989330;28;20039;-74
2023/06/24 08:22:14;;;;;;;9.20;5.63;;;27.70;93.90;;;;;;4989032;28;20050;-74
2023/06/24 08:24:40;;;;;;;8.02;5.50;;;27.60;94.30;;;;;;4949432;28;20039;-68
2023/06/24 08:27:05;;;;;;;7.90;5.60;;;27.70;94.50;;;;;;4991634;28;20121;-68
2023/06/24 08:29:31;;;;;;;7.25;5.60;;;27.80;94.20;;;;;;4958241;28;20207;-70
2023/06/24 08:31:57;;;;;;;10.43;5.35;;;27.70;94.20;;;;;;4989414;28;20042;-68
2023/06/24 08:34:22;;;;;;;8.18;5.20;;;27.80;94.10;;;;;;4987353;28;20081;-68
2023/06/24 08:36:48;;;;;;;9.50;4.88;;;28.00;94.30;;;;;;4990589;28;20062;-73
2023/06/24 08:39:14;;;;;;;10.32;5.47;;;28.10;93.70;;;;;;4957317;28;20125;-68
2023/06/24 08:41:40;;;;;;;10.10;5.00;;;28.10;93.50;;;;;;4990684;28;20049;-68
2023/06/24 08:44:05;;;;;;;7.65;4.50;;;28.20;93.50;;;;;;4985967;28;20046;-67
2023/06/24 08:46:33;;;;;;;9.32;5.18;;;28.40;93.20;;;;;;4973873;28;20125;-67
2023/06/24 08:49:28;;;;;;;7.22;5.00;;;29.00;93.20;;;;;;4973483;28;20042;-67
2023/06/24 08:52:03;;;;;;;10.27;4.70;;;29.80;92.10;;;;;;4974675;28;20046;-68
2023/06/24 08:54:34;;;;;;;9.48;4.60;;;30.20;91.70;;;;;;4988735;28;20038;-67
2023/06/24 08:57:01;;;;;;;6.70;4.60;;;30.40;91.90;;;;;;4991028;28;20046;-67
2023/06/24 08:59:27;;;;;;;6.75;4.70;;;30.50;91.40;;;;;;4991336;28;20051;-67
2023/06/24 09:01:53;;;;;;;7.40;5.03;;;30.60;91.40;;;;;;4958522;28;20141;-74
2023/06/24 09:04:18;;;;;;;15.15;4.68;;;30.60;91.30;;;;;;4990852;28;20053;-68
2023/06/24 09:06:44;;;;;;;7.28;4.30;;;31.00;91.50;;;;;;4974288;28;20550;-67
2023/06/24 09:09:21;;;;;;;7.25;4.60;;;31.40;90.90;;;;;;4990344;28;20050;-67
2023/06/24 09:12:03;;;;;;;7.28;4.78;;;31.80;90.00;;;;;;4991115;28;20533;-67
2023/06/24 09:14:29;;;;;;;9.75;4.85;;;31.80;90.30;;;;;;4974556;28;20455;-67
2023/06/24 09:16:56;;;;;;;6.53;4.30;;;31.80;90.20;;;;;;4978927;28;20056;-74
2023/06/24 09:19:29;;;;;;;6.82;4.53;;;32.00;88.30;;;;;;4974628;28;20075;-68
2023/06/24 09:22:06;;;;;;;8.27;4.88;;;31.80;88.70;;;;;;4980880;28;20154;-74
2023/06/24 09:24:36;;;;;;;8.90;4.35;;;31.70;88.20;;;;;;4957654;28;20046;-67
2023/06/24 09:27:03;;;;;;;6.85;4.10;;;31.60;89.40;;;;;;4957723;28;20047;-68
2023/06/24 09:29:34;;;;;;;6.32;4.57;;;31.60;90.00;;;;;;4974363;28;20056;-67
2023/06/24 09:32:03;;;;;;;8.07;4.70;;;31.60;89.40;;;;;;4980113;28;20140;-66
2023/06/24 09:34:29;;;;;;;8.02;4.65;;;31.30;89.50;;;;;;4990353;28;20050;-66
2023/06/24 09:36:56;;;;;;;7.10;4.50;;;31.20;89.80;;;;;;4991532;28;20085;-67
2023/06/24 09:39:30;;;;;;;7.57;4.40;;;31.30;90.00;;;;;;4974128;28;20188;-66
2023/06/24 09:41:56;;;;;;;;;;;31.40;90.00;;;;;;4982516;28;20043;-67
2023/06/24 09:44:21;;;;;;;7.88;4.50;;;31.60;90.10;;;;;;4972313;28;19984;-68
2023/06/24 09:46:47;;;;;;;7.60;4.57;;;32.00;89.60;;;;;;4971614;28;20062;-67
2023/06/24 09:49:14;;;;;;;7.97;5.43;;;32.50;89.60;;;;;;4989667;28;20054;-67
2023/06/24 09:51:45;;;;;;;6.88;5.05;;;32.80;87.90;;;;;;4987682;28;20051;-70
2023/06/24 09:54:13;;;;;;;8.18;5.05;;;33.00;87.90;;;;;;4992196;28;20042;-67
2023/06/24 09:56:46;;;;;;;5.80;4.35;;;33.20;86.10;;;;;;4977660;28;20052;-67
2023/06/24 09:59:13;;;;;;;8.27;4.30;;;33.50;86.90;;;;;;4991224;28;20403;-67
2023/06/24 10:01:40;;;;;;;6.75;4.35;;;33.60;86.50;;;;;;4994089;28;20551;-68
2023/06/24 10:04:06;;;;;;;5.70;4.15;;;33.70;85.70;;;;;;4982989;28;20117;-68
2023/06/24 10:06:33;;;;;;;6.63;3.97;;;33.70;85.70;;;;;;4994804;28;20484;-67
2023/06/24 10:09:00;;;;;;;6.15;4.50;;;33.30;84.90;;;;;;4994785;28;20058;-67
2023/06/24 10:11:26;;;;;;;6.57;4.25;;;32.80;85.40;;;;;;4994047;28;20046;-68
2023/06/24 10:13:53;;;;;;;9.50;5.05;;;32.50;86.50;;;;;;4964962;28;20046;-67
2023/06/24 10:16:19;;;;;;;8.63;5.30;;;32.20;85.60;;;;;;4974011;28;20053;-68
2023/06/24 10:18:45;;;;;;;8.85;4.18;;;32.10;86.50;;;;;;4977073;28;20046;-67
2023/06/24 10:21:12;;;;;;;6.40;3.92;;;31.80;86.40;;;;;;4993585;28;20049;-70
2023/06/24 10:23:56;;;;;;;6.43;4.45;;;31.80;86.80;;;;;;4970246;28;20042;-67
2023/06/24 10:26:29;;;;;;;9.05;4.20;;;31.80;86.40;;;;;;4992875;28;20061;-67
2023/06/24 10:29:07;;;;;;;;;;;31.90;86.80;;;;;;4992030;28;20101;-66
2023/06/24 10:31:44;;;;;;;10.57;5.03;;;31.90;86.90;;;;;;4976388;28;19929;-71
2023/06/24 10:34:19;;;;;;;7.25;4.45;;;32.10;86.40;;;;;;4987260;28;20054;-67
2023/06/24 10:36:58;;;;;;;5.57;3.70;;;32.00;86.20;;;;;;4989828;28;20058;-68
2023/06/24 10:39:46;;;;;;;6.20;4.20;;;31.80;86.10;;;;;;4993349;28;20099;-67
2023/06/24 10:42:37;;;;;;;6.35;3.40;;;31.70;85.50;;;;;;4972796;28;20054;-67
2023/06/24 10:45:08;;;;;;;5.35;3.63;;;31.50;84.40;;;;;;4996650;28;20053;-66
2023/06/24 10:47:34;;;;;;;4.35;3.65;;;31.30;85.80;;;;;;4971328;28;20105;-66
2023/06/24 10:50:00;;;;;;;7.88;3.70;;;31.20;85.90;;;;;;4992661;28;20046;-65
2023/06/24 10:52:26;;;;;;;6.38;4.30;;;31.10;86.10;;;;;;4959150;28;20483;-67
2023/06/24 10:54:53;;;;;;;7.57;3.92;;;31.00;86.80;;;;;;4973108;28;20403;-65
2023/06/24 10:57:36;;;;;;;9.20;4.30;;;30.90;87.10;;;;;;4992555;28;20487;-65
2023/06/24 11:00:03;;;;;;;5.63;4.03;;;30.70;85.70;;;;;;4974709;28;20511;-66
2023/06/24 11:02:29;;;;;;;6.25;4.38;;;30.70;87.00;;;;;;4959057;28;20376;-68
2023/06/24 11:05:03;;;;;;;5.72;3.95;;;30.60;87.70;;;;;;4976061;28;20057;-69
2023/06/24 11:07:39;;;;;;;11.27;4.97;;;30.60;88.10;;;;;;4987309;28;20443;-68
2023/06/24 11:10:11;;;;;;;7.55;5.65;;;30.60;87.90;;;;;;4988592;28;20105;-69
2023/06/24 11:12:38;;;;;;;4.47;3.42;;;30.50;87.90;;;;;;4988114;28;20371;-67
2023/06/24 11:15:09;;;;;;;7.78;4.38;;;30.60;88.00;;;;;;4975470;28;20044;-67
2023/06/24 11:17:36;;;;;;;5.35;3.85;;;30.60;87.50;;;;;;4971508;28;20105;-69
2023/06/24 11:20:13;;;;;;;5.50;3.88;;;30.70;87.50;;;;;;4993016;28;20047;-69
2023/06/24 11:22:43;;;;;;;6.13;4.10;;;30.90;86.50;;;;;;4974896;28;20479;-68
2023/06/24 11:25:17;;;;;;;5.93;3.70;;;31.00;87.60;;;;;;4976071;28;20039;-67
2023/06/24 11:27:43;;;;;;;11.65;4.10;;;31.20;86.00;;;;;;4975618;28;20061;-67
2023/06/24 11:30:10;;;;;;;6.10;4.10;;;31.20;86.70;;;;;;4988224;28;20054;-66
2023/06/24 11:32:37;;;;;;;6.38;3.70;;;31.20;87.20;;;;;;4970645;28;20104;-69
2023/06/24 11:35:09;;;;;;;7.80;4.13;;;31.00;87.60;;;;;;4974357;28;20061;-67
2023/06/24 11:37:35;;;;;;;6.47;4.53;;;31.00;88.30;;;;;;4987526;28;20113;-65
2023/06/24 11:40:05;;;;;;;12.32;5.10;;;30.90;88.70;;;;;;4985422;28;20407;-67
2023/06/24 11:42:40;;;;;;;7.18;4.47;;;30.80;88.80;;;;;;4982326;28;20038;-67
2023/06/24 11:45:09;;;;;;;6.28;4.47;;;30.60;88.90;;;;;;4975319;28;20035;-67
2023/06/24 11:47:36;;;;;;;7.68;4.63;;;30.40;89.80;;;;;;4974717;28;20128;-65
2023/06/24 11:50:04;;;;;;;7.30;4.38;;;30.40;89.70;;;;;;4972210;28;20058;-66
2023/06/24 11:52:33;;;;;;;6.22;4.53;;;30.30;90.00;;;;;;4979155;28;20050;-66
2023/06/24 11:54:59;;;;;;;5.80;4.53;;;30.30;90.20;;;;;;4974436;28;20403;-66
2023/06/24 11:57:50;;;;;;;7.07;4.53;;;30.40;89.80;;;;;;4984698;28;20046;-68
2023/06/24 12:00:16;;;;;;;5.25;3.10;;;30.40;88.60;;;;;;4970068;28;20082;-68
2023/06/24 12:02:41;;;;;;;4.93;3.38;;;30.50;86.80;;;;;;4973280;28;20077;-69
2023/06/24 12:05:07;;;;;;;5.95;3.40;;;30.50;86.80;;;;;;4975245;28;20069;-68
2023/06/24 12:07:33;;;;;;;5.65;3.42;;;30.60;86.90;;;;;;4991721;28;20121;-67
2023/06/24 12:09:59;;;;;;;5.63;3.50;;;30.70;86.60;;;;;;4959510;28;20058;-68
2023/06/24 12:12:25;;;;;;;4.72;3.38;;;30.80;85.70;;;;;;4963532;28;20105;-69
2023/06/24 12:14:50;;;;;;;5.88;3.60;;;30.80;84.40;;;;;;4953856;28;20054;-69
2023/06/24 12:17:16;;;;;;;7.47;3.47;;;30.70;85.40;;;;;;4992334;28;20391;-69
2023/06/24 12:19:42;;;;;;;7.70;3.63;;;30.60;85.50;;;;;;4945171;28;20349;-69
2023/06/24 12:22:07;;;;;;;5.88;3.28;;;30.70;85.80;;;;;;4974358;28;20078;-69
2023/06/24 12:24:34;;;;;;;7.20;3.72;;;30.70;86.20;;;;;;4971101;28;20038;-67
2023/06/24 12:27:00;;;;;;;9.82;3.85;;;30.60;86.90;;;;;;4991939;28;20073;-67
2023/06/24 12:29:26;;;;;;;8.15;4.32;;;30.60;87.10;;;;;;4986364;28;20050;-68
2023/06/24 12:31:51;;;;;;;6.22;3.50;;;30.60;87.00;;;;;;4958108;28;20050;-68
2023/06/24 12:34:17;;;;;;;8.40;4.25;;;30.70;87.50;;;;;;4972884;28;20061;-68
2023/06/24 12:36:43;;;;;;;5.95;3.80;;;30.70;87.20;;;;;;4985920;28;20039;-68
2023/06/24 12:39:08;;;;;;;6.55;3.60;;;30.70;86.60;;;;;;4972363;28;20050;-68
2023/06/24 12:41:34;;;;;;;6.22;3.45;;;30.60;85.80;;;;;;4991503;28;20046;-70
2023/06/24 12:44:00;;;;;;;5.22;3.60;;;30.70;85.80;;;;;;4974469;28;20045;-69